- বাংলা English

  **** Phone: +880 2 9135742, 9123838, 9141437 | Fax: +880 2  9119230, 9103908 | E-mail: info@bmd.gov.bd , swc@bmd.gov.bd   | IVR: 1090  ****

METAR

VGHS 211700Z 18007KT 4000 HZ SCT100 29/25 Q1003 NO SIG=